createdAt,value
2018-10-02T04:29:37.052Z,1.97
2018-10-02T04:32:05.632Z,2.00
2018-10-02T04:34:34.104Z,2.33
2018-10-02T04:37:02.598Z,2.10
2018-10-02T04:39:31.122Z,2.00
2018-10-02T04:41:59.554Z,2.47
2018-10-02T04:44:28.065Z,2.03
2018-10-02T04:46:56.599Z,2.10
2018-10-02T04:49:25.068Z,2.30
2018-10-02T04:51:53.844Z,2.07
2018-10-02T04:54:22.376Z,1.80
2018-10-02T04:56:51.027Z,1.77
2018-10-02T04:59:19.581Z,2.00
2018-10-02T05:01:48.092Z,2.03
2018-10-02T05:04:16.592Z,2.07
2018-10-02T05:06:45.062Z,2.27
2018-10-02T05:09:13.604Z,2.30
2018-10-02T05:11:42.105Z,1.93
2018-10-02T05:14:10.708Z,2.03
2018-10-02T05:16:39.171Z,2.23
2018-10-02T05:19:07.778Z,2.30
2018-10-02T05:21:36.248Z,2.10
2018-10-02T05:24:04.739Z,2.40
2018-10-02T05:26:33.204Z,2.23
2018-10-02T05:29:01.725Z,2.30
2018-10-02T05:31:30.206Z,2.30
2018-10-02T05:33:58.753Z,2.10
2018-10-02T05:36:27.573Z,2.40
2018-10-02T05:38:57.172Z,2.10
2018-10-02T05:41:26.548Z,2.20
2018-10-02T05:43:55.092Z,2.13
2018-10-02T05:46:23.617Z,2.40
2018-10-02T05:48:52.142Z,2.53
2018-10-02T05:51:20.703Z,2.80
2018-10-02T05:53:49.233Z,2.00
2018-10-02T05:56:17.777Z,2.27
2018-10-02T05:58:46.317Z,2.20
2018-10-02T06:01:14.843Z,2.43
2018-10-02T06:03:43.448Z,3.00
2018-10-02T06:06:11.946Z,2.77
2018-10-02T06:08:40.455Z,2.50
2018-10-02T06:11:08.984Z,2.33
2018-10-02T06:13:37.490Z,2.20
2018-10-02T06:16:06.064Z,2.47
2018-10-02T06:18:34.620Z,2.40
2018-10-02T06:21:03.217Z,2.23
2018-10-02T06:23:32.086Z,2.63
2018-10-02T06:26:00.668Z,2.30
2018-10-02T06:28:29.562Z,2.40
2018-10-02T06:30:58.446Z,2.40
2018-10-02T06:33:27.156Z,2.50
2018-10-02T06:35:55.675Z,2.50
2018-10-02T06:38:24.521Z,2.40
2018-10-02T06:40:53.124Z,2.50
2018-10-02T06:43:21.920Z,2.53
2018-10-02T06:45:51.027Z,2.47
2018-10-02T06:48:22.709Z,2.43
2018-10-02T06:50:51.489Z,2.33
2018-10-02T06:53:19.937Z,2.30
2018-10-02T06:55:48.524Z,2.43
2018-10-02T06:58:17.053Z,2.80
2018-10-02T07:00:45.588Z,2.73
2018-10-02T07:03:14.063Z,2.80
2018-10-02T07:05:42.636Z,2.97
2018-10-02T07:08:11.338Z,3.03
2018-10-02T07:10:40.053Z,2.80
2018-10-02T07:13:09.925Z,2.60
2018-10-02T07:15:38.621Z,2.23
2018-10-02T07:18:07.137Z,2.70
2018-10-02T07:20:36.252Z,2.57
2018-10-02T07:23:05.627Z,3.07
2018-10-02T07:25:34.280Z,2.60
2018-10-02T07:28:03.173Z,2.30
2018-10-02T07:30:31.548Z,2.40
2018-10-02T07:33:00.114Z,2.43
2018-10-02T07:35:28.573Z,2.40
2018-10-02T07:37:57.127Z,2.50
2018-10-02T07:40:25.703Z,2.30
2018-10-02T07:42:54.293Z,2.57
2018-10-02T07:45:22.853Z,2.60
2018-10-02T07:47:51.388Z,2.70
2018-10-02T07:50:19.866Z,2.23
2018-10-02T07:52:48.449Z,2.00
2018-10-02T07:55:16.995Z,2.30
2018-10-02T07:57:45.531Z,2.40
2018-10-02T08:00:14.061Z,2.27
2018-10-02T08:02:42.631Z,2.20
2018-10-02T08:05:11.194Z,2.00
2018-10-02T08:07:39.686Z,1.80
2018-10-02T08:10:08.225Z,1.67
2018-10-02T08:12:36.732Z,2.20
2018-10-02T08:15:05.321Z,2.20
2018-10-02T08:17:33.856Z,2.00
2018-10-02T08:20:02.423Z,2.13
2018-10-02T08:22:30.877Z,2.30
2018-10-02T08:24:59.373Z,2.10
2018-10-02T08:27:27.974Z,2.47
2018-10-02T08:29:56.533Z,2.10
2018-10-02T08:32:25.028Z,2.17
2018-10-02T08:34:53.561Z,2.93
2018-10-02T08:37:22.100Z,2.83
2018-10-02T08:39:50.554Z,3.40
2018-10-02T08:42:19.046Z,3.87
2018-10-02T08:44:47.562Z,3.27
2018-10-02T08:47:16.041Z,2.67
2018-10-02T08:49:44.502Z,2.40
2018-10-02T08:52:13.136Z,2.17
2018-10-02T08:54:41.670Z,1.87
2018-10-02T08:57:10.226Z,2.00
2018-10-02T08:59:38.778Z,2.20
2018-10-02T09:02:07.367Z,2.10
2018-10-02T09:04:35.878Z,2.20
2018-10-02T09:07:04.503Z,2.17
2018-10-02T09:09:32.998Z,2.00
2018-10-02T09:12:01.487Z,2.00
2018-10-02T09:14:29.976Z,2.07
2018-10-02T09:16:58.511Z,2.33
2018-10-02T09:19:26.988Z,2.33
2018-10-02T09:21:55.524Z,2.13
2018-10-02T09:24:24.051Z,2.00
2018-10-02T09:26:52.513Z,2.10
2018-10-02T09:29:20.988Z,2.60
2018-10-02T09:31:54.843Z,2.10
2018-10-02T09:34:28.501Z,2.43
2018-10-02T09:37:02.225Z,2.47
2018-10-02T09:39:36.085Z,2.20
2018-10-02T09:42:09.796Z,2.30
2018-10-02T09:44:38.296Z,2.30
2018-10-02T09:47:06.837Z,2.30
2018-10-02T09:49:35.314Z,2.20
2018-10-02T09:52:03.840Z,1.97
2018-10-02T09:54:32.370Z,2.37
2018-10-02T09:57:00.893Z,2.20
2018-10-02T09:59:29.437Z,2.53
2018-10-02T10:02:03.127Z,2.30
2018-10-02T10:04:31.632Z,2.10
2018-10-02T10:07:00.193Z,2.40
2018-10-02T10:09:28.678Z,2.50
2018-10-02T10:11:57.202Z,2.70
2018-10-02T10:14:25.715Z,2.60
2018-10-02T10:16:54.280Z,2.67
2018-10-02T10:19:22.746Z,2.70
2018-10-02T10:21:51.277Z,2.80
2018-10-02T10:24:19.821Z,2.60
2018-10-02T10:26:48.332Z,2.80
2018-10-02T10:29:16.832Z,2.87
2018-10-02T10:31:45.308Z,2.70
2018-10-02T10:34:13.827Z,2.70
2018-10-02T10:36:42.345Z,2.30
2018-10-02T10:39:11.302Z,2.87
2018-10-02T10:41:39.895Z,2.23
2018-10-02T10:44:08.464Z,2.83
2018-10-02T10:46:36.984Z,3.00
2018-10-02T10:49:05.473Z,2.80
2018-10-02T10:51:33.962Z,2.57
2018-10-02T10:54:02.510Z,2.70
2018-10-02T10:56:31.007Z,2.80
2018-10-02T10:58:59.554Z,2.90
2018-10-02T11:01:28.052Z,2.83
2018-10-02T11:03:56.546Z,2.60
2018-10-02T11:06:25.030Z,2.90
2018-10-02T11:08:53.550Z,2.73
2018-10-02T11:11:22.069Z,3.03
2018-10-02T11:13:50.607Z,2.87
2018-10-02T11:16:19.136Z,2.80
2018-10-02T11:18:47.681Z,3.33
2018-10-02T11:21:17.005Z,3.23
2018-10-02T11:23:45.571Z,3.00
2018-10-02T11:26:14.085Z,2.87
2018-10-02T11:28:42.655Z,3.13
2018-10-02T11:31:11.259Z,2.90
2018-10-02T11:33:40.992Z,3.37
2018-10-02T11:36:10.233Z,3.20
2018-10-02T11:38:39.275Z,3.57
2018-10-02T11:41:08.420Z,3.07
2018-10-02T11:43:38.992Z,2.93
2018-10-02T11:46:08.592Z,3.00
2018-10-02T11:48:38.117Z,2.73
2018-10-02T11:51:07.597Z,3.13
2018-10-02T11:53:36.214Z,3.60
2018-10-02T11:56:04.758Z,2.80
2018-10-02T11:58:33.312Z,3.30
2018-10-02T12:01:02.135Z,3.40
2018-10-02T12:03:30.657Z,3.27
2018-10-02T12:05:59.256Z,3.50
2018-10-02T12:08:27.926Z,3.20
2018-10-02T12:10:56.840Z,3.27
2018-10-02T12:13:25.404Z,2.77
2018-10-02T12:15:53.888Z,2.90
2018-10-02T12:18:22.444Z,3.00
2018-10-02T12:20:50.911Z,2.80
2018-10-02T12:23:19.410Z,3.10
2018-10-02T12:25:47.943Z,2.90
2018-10-02T12:28:16.576Z,3.03
2018-10-02T12:30:45.146Z,3.37
2018-10-02T12:33:13.689Z,3.40
2018-10-02T12:35:42.181Z,3.17
2018-10-02T12:38:10.755Z,3.10
2018-10-02T12:40:39.281Z,3.37
2018-10-02T12:43:07.847Z,2.90
2018-10-02T12:45:36.346Z,3.13
2018-10-02T12:48:04.862Z,3.17
2018-10-02T12:50:33.499Z,3.20
2018-10-02T12:53:02.029Z,3.17
2018-10-02T12:55:30.517Z,3.70
2018-10-02T12:58:01.828Z,3.20
2018-10-02T13:00:31.841Z,3.30
2018-10-02T13:03:00.308Z,3.13
2018-10-02T13:05:30.462Z,2.97
2018-10-02T13:07:59.116Z,3.23
2018-10-02T13:10:28.137Z,2.90
2018-10-02T13:12:57.960Z,3.00
2018-10-02T13:15:26.465Z,3.13
2018-10-02T13:17:55.151Z,3.33
2018-10-02T13:20:23.891Z,3.10
2018-10-02T13:22:52.737Z,3.60
2018-10-02T13:25:21.359Z,3.47
2018-10-02T13:27:49.838Z,3.40
2018-10-02T13:30:18.374Z,3.80
2018-10-02T13:32:46.852Z,9.80
2018-10-02T13:35:16.208Z,4.03
2018-10-02T13:37:44.786Z,3.77
2018-10-02T13:40:13.291Z,3.47
2018-10-02T13:42:45.238Z,3.47
2018-10-02T13:45:15.993Z,3.83
2018-10-02T13:47:48.271Z,3.70
2018-10-02T13:50:17.367Z,3.70
2018-10-02T13:52:47.366Z,3.33
2018-10-02T13:55:16.990Z,3.40
2018-10-02T13:57:47.049Z,3.30
2018-10-02T14:00:16.907Z,3.47
2018-10-02T14:02:45.803Z,3.20
2018-10-02T14:05:14.873Z,3.57
2018-10-02T14:07:44.509Z,3.00
2018-10-02T14:10:14.026Z,3.07
2018-10-02T14:12:43.082Z,3.20
2018-10-02T14:15:12.654Z,3.47
2018-10-02T14:17:43.175Z,3.80
2018-10-02T14:20:12.350Z,3.47
2018-10-02T14:22:42.528Z,3.83
2018-10-02T14:25:12.090Z,5.43
2018-10-02T14:27:40.581Z,8.43
2018-10-02T14:30:10.375Z,7.87
2018-10-02T14:32:41.542Z,4.07
2018-10-02T14:35:10.099Z,3.00
2018-10-02T14:37:39.491Z,3.40
2018-10-02T14:40:08.118Z,2.77
2018-10-02T14:42:38.617Z,3.00
2018-10-02T14:45:09.254Z,3.20
2018-10-02T14:47:39.762Z,3.27
2018-10-02T14:50:09.805Z,2.70
2018-10-02T14:52:40.561Z,2.30
2018-10-02T14:55:10.560Z,2.93
2018-10-02T14:57:41.194Z,2.50
2018-10-02T15:00:10.781Z,2.50
2018-10-02T15:02:39.871Z,2.50
2018-10-02T15:05:10.115Z,2.00
2018-10-02T15:07:40.304Z,2.10
2018-10-02T15:10:09.771Z,1.90
2018-10-02T15:12:39.320Z,1.60
2018-10-02T15:15:09.285Z,1.40
2018-10-02T15:17:39.272Z,1.30
2018-10-02T15:20:07.901Z,1.80
2018-10-02T15:22:36.438Z,1.30
2018-10-02T15:25:05.021Z,1.40
2018-10-02T15:27:33.541Z,1.10
2018-10-02T15:30:02.098Z,1.43
2018-10-02T15:32:30.593Z,1.00
2018-10-02T15:34:59.145Z,1.10
2018-10-02T15:37:27.710Z,1.47
2018-10-02T15:39:56.353Z,1.17
2018-10-02T15:42:24.953Z,1.60
2018-10-02T15:44:53.474Z,1.10
2018-10-02T15:47:22.315Z,1.40
2018-10-02T15:49:50.872Z,1.10
2018-10-02T15:52:19.402Z,1.27
2018-10-02T15:54:47.961Z,1.20
2018-10-02T15:57:16.427Z,1.10
2018-10-02T15:59:45.058Z,1.30
2018-10-02T16:02:14.009Z,1.10
2018-10-02T16:04:43.791Z,1.23
2018-10-02T16:07:13.398Z,1.30
2018-10-02T16:09:41.946Z,0.90
2018-10-02T16:12:13.452Z,1.17
2018-10-02T16:14:42.014Z,1.40
2018-10-02T16:17:11.277Z,1.30
2018-10-02T16:19:40.874Z,1.20
2018-10-02T16:22:09.399Z,1.20
2018-10-02T16:24:38.429Z,1.10
2018-10-02T16:27:07.600Z,1.47
2018-10-02T16:29:36.854Z,1.03
2018-10-02T16:32:06.780Z,1.00
2018-10-02T16:34:48.979Z,1.30
2018-10-02T16:37:07.423Z,1.20
2018-10-02T16:39:38.795Z,1.23
2018-10-02T16:42:08.946Z,1.17
2018-10-02T16:44:39.472Z,1.03
2018-10-02T16:47:09.247Z,1.20
2018-10-02T16:49:37.728Z,1.20
2018-10-02T16:52:06.352Z,1.03
2018-10-02T16:54:34.873Z,0.87
2018-10-02T16:57:03.490Z,0.93
2018-10-02T16:59:31.949Z,1.50
2018-10-02T17:02:03.066Z,0.87
2018-10-02T17:04:33.325Z,1.00
2018-10-02T17:07:04.167Z,1.43
2018-10-02T17:09:34.820Z,1.10
2018-10-02T17:12:06.076Z,1.00
2018-10-02T17:14:36.128Z,1.00
2018-10-02T17:17:06.418Z,1.40
2018-10-02T17:19:36.247Z,1.00
2018-10-02T17:22:07.210Z,0.90
2018-10-02T17:24:37.879Z,0.83
2018-10-02T17:27:08.544Z,1.13
2018-10-02T17:29:39.191Z,1.20
2018-10-02T17:32:09.745Z,1.17
2018-10-02T17:34:41.576Z,1.13
2018-10-02T17:37:11.768Z,1.07
2018-10-02T17:39:40.337Z,1.20
2018-10-02T17:42:08.855Z,1.50
2018-10-02T17:44:37.384Z,1.40
2018-10-02T17:47:05.940Z,1.30
2018-10-02T17:49:36.435Z,4.63
2018-10-02T17:52:07.073Z,2.23
2018-10-02T17:54:39.825Z,1.90
2018-10-02T17:57:10.110Z,2.47
2018-10-02T17:59:41.948Z,2.30
2018-10-02T18:02:13.345Z,1.70
2018-10-02T18:04:44.648Z,1.70
2018-10-02T18:07:15.375Z,1.30
2018-10-02T18:09:47.313Z,1.47
2018-10-02T18:12:18.052Z,1.80
2018-10-02T18:14:50.414Z,1.57
2018-10-02T18:17:18.982Z,1.60
2018-10-02T18:19:48.786Z,1.60
2018-10-02T18:22:19.494Z,2.20
2018-10-02T18:24:54.280Z,1.57
2018-10-02T18:27:26.427Z,1.70
2018-10-02T18:29:57.079Z,1.70
2018-10-02T18:32:27.616Z,1.60
2018-10-02T18:34:58.287Z,1.50
2018-10-02T18:37:30.402Z,1.67
2018-10-02T18:40:00.729Z,1.60
2018-10-02T18:42:31.202Z,1.57
2018-10-02T18:45:01.870Z,1.60
2018-10-02T18:47:31.834Z,1.57
2018-10-02T18:50:00.679Z,1.87
2018-10-02T18:52:29.250Z,2.00
2018-10-02T18:54:57.801Z,1.83
2018-10-02T18:57:26.414Z,2.00
2018-10-02T18:59:55.093Z,2.13
2018-10-02T19:02:23.722Z,2.10
2018-10-02T19:04:52.299Z,2.20
2018-10-02T19:07:20.932Z,1.90
2018-10-02T19:09:49.443Z,1.97
2018-10-02T19:12:19.867Z,2.00
2018-10-02T19:14:48.433Z,2.43
2018-10-02T19:17:17.015Z,2.50
2018-10-02T19:19:51.289Z,2.60
2018-10-02T19:22:19.936Z,2.80
2018-10-02T19:24:48.457Z,3.00
2018-10-02T19:27:16.931Z,3.50
2018-10-02T19:29:45.493Z,3.10
2018-10-02T19:32:16.610Z,3.30
2018-10-02T19:34:48.972Z,3.17
2018-10-02T19:37:23.960Z,2.77
2018-10-02T19:39:52.580Z,3.10
2018-10-02T19:42:21.179Z,3.10
2018-10-02T19:44:50.648Z,3.17
2018-10-02T19:47:20.166Z,3.17
2018-10-02T19:49:49.935Z,3.37
2018-10-02T19:52:19.472Z,3.23
2018-10-02T19:54:49.108Z,3.33
2018-10-02T19:57:19.551Z,3.07
2018-10-02T19:59:49.093Z,3.33
2018-10-02T20:02:18.145Z,3.50
2018-10-02T20:04:47.094Z,3.50
2018-10-02T20:07:16.865Z,3.20
2018-10-02T20:09:46.118Z,3.30
2018-10-02T20:12:15.425Z,3.63
2018-10-02T20:14:43.941Z,3.83
2018-10-02T20:17:12.468Z,3.77
2018-10-02T20:19:42.439Z,4.30
2018-10-02T20:22:12.822Z,4.37
2018-10-02T20:24:42.833Z,4.60
2018-10-02T20:27:12.027Z,4.23
2018-10-02T20:29:42.270Z,4.17
2018-10-02T20:32:12.588Z,4.53
2018-10-02T20:34:43.079Z,4.03
2018-10-02T20:37:12.341Z,4.30
2018-10-02T20:39:42.309Z,4.27
2018-10-02T20:42:11.529Z,4.50
2018-10-02T20:44:40.353Z,4.50
2018-10-02T20:47:11.995Z,4.30
2018-10-02T20:49:40.825Z,4.93
2018-10-02T20:52:10.528Z,5.20
2018-10-02T20:54:40.433Z,4.90
2018-10-02T20:57:10.002Z,5.30
2018-10-02T20:59:39.030Z,5.83
2018-10-02T21:02:07.553Z,5.80
2018-10-02T21:04:37.726Z,5.20
2018-10-02T21:07:08.897Z,5.20
2018-10-02T21:09:39.151Z,5.80
2018-10-02T21:12:09.233Z,5.57
2018-10-02T21:14:38.941Z,5.73
2018-10-02T21:17:07.838Z,5.63
2018-10-02T21:19:36.326Z,5.30
2018-10-02T21:22:05.084Z,5.63
2018-10-02T21:24:34.004Z,5.53
2018-10-02T21:27:02.746Z,5.50
2018-10-02T21:29:31.318Z,5.37
2018-10-02T21:31:59.857Z,6.00
2018-10-02T21:34:28.590Z,6.80
2018-10-02T21:36:57.106Z,7.67
2018-10-02T21:39:25.620Z,7.33
2018-10-02T21:41:54.082Z,6.70
2018-10-02T21:44:22.598Z,6.93
2018-10-02T21:46:51.093Z,6.27
2018-10-02T21:49:19.601Z,7.77
2018-10-02T21:51:48.140Z,8.70
2018-10-02T21:54:16.643Z,6.13
2018-10-02T21:56:45.149Z,6.43
